Time;durP1;ratioP1;P1;durP2;ratioP2;P2;SDS_P1;SDS_P2;PMS_P1;PMS_P2;Temp;Humidity;BMP_temperature;BMP_pressure;BME280_temperature;BME280_humidity;BME280_pressure;Samples;Min_cycle;Max_cycle;Signal;HPM_P1;HPM_P2
2022/04/03 00:02:02;;;;;;;2.45;1.40;;;6.90;77.00;;;;;;5011867;28;20882;-67
2022/04/03 00:04:27;;;;;;;3.53;1.80;;;6.90;76.90;;;;;;5012235;28;20038;-66
2022/04/03 00:06:54;;;;;;;3.13;1.45;;;6.80;77.00;;;;;;5012402;28;20036;-67
2022/04/03 00:09:19;;;;;;;4.07;1.58;;;6.80;77.00;;;;;;5015542;28;20053;-67
2022/04/03 00:11:45;;;;;;;4.32;1.90;;;6.80;77.10;;;;;;5022785;28;20430;-66
2022/04/03 00:14:11;;;;;;;2.55;1.45;;;6.80;77.30;;;;;;5027022;28;20117;-66
2022/04/03 00:16:37;;;;;;;2.22;1.77;;;6.70;77.30;;;;;;5021992;28;20033;-66
2022/04/03 00:19:05;;;;;;;2.22;1.70;;;6.70;77.30;;;;;;5011863;28;20022;-66
2022/04/03 00:21:31;;;;;;;3.53;2.10;;;6.70;77.70;;;;;;5012045;28;20026;-66
2022/04/03 00:23:57;;;;;;;3.15;1.92;;;6.70;77.90;;;;;;5014813;28;20068;-66
2022/04/03 00:26:22;;;;;;;7.13;2.13;;;6.60;77.90;;;;;;5031627;28;20463;-66
2022/04/03 00:28:54;;;;;;;2.97;1.83;;;6.60;78.00;;;;;;5013991;28;20029;-66
2022/04/03 00:31:19;;;;;;;2.45;1.70;;;6.60;78.40;;;;;;5023017;28;20444;-66
2022/04/03 00:33:45;;;;;;;2.38;1.70;;;6.60;78.50;;;;;;5026703;28;20025;-66
2022/04/03 00:36:11;;;;;;;9.82;2.30;;;6.50;78.50;;;;;;5024368;28;20411;-66
2022/04/03 00:38:37;;;;;;;2.67;1.88;;;6.50;78.20;;;;;;5031481;28;20038;-66
2022/04/03 00:41:03;;;;;;;2.40;1.65;;;6.50;78.40;;;;;;5019754;28;20037;-66
2022/04/03 00:43:30;;;;;;;2.08;1.65;;;6.50;78.70;;;;;;5011578;28;20050;-66
2022/04/03 00:45:58;;;;;;;4.50;1.92;;;6.40;79.90;;;;;;5024231;28;20044;-66
2022/04/03 00:48:24;;;;;;;4.00;1.98;;;6.40;79.80;;;;;;5032054;28;20037;-66
2022/04/03 00:50:50;;;;;;;3.08;1.70;;;6.40;80.30;;;;;;5017401;28;20080;-66
2022/04/03 00:53:16;;;;;;;4.00;1.80;;;6.40;80.50;;;;;;5011347;28;20549;-66
2022/04/03 00:55:43;;;;;;;4.15;1.95;;;6.30;80.60;;;;;;5011541;28;20120;-66
2022/04/03 00:58:13;;;;;;;2.92;1.67;;;6.30;81.10;;;;;;5010962;28;20049;-66
2022/04/03 01:00:39;;;;;;;2.45;1.50;;;6.30;81.40;;;;;;5024646;28;20052;-67
2022/04/03 01:03:05;;;;;;;3.08;1.40;;;6.30;81.60;;;;;;5011646;28;20042;-66
2022/04/03 01:05:31;;;;;;;2.53;1.60;;;6.20;81.70;;;;;;5010599;28;20033;-66
2022/04/03 01:07:57;;;;;;;4.60;1.45;;;6.20;81.60;;;;;;5014161;28;20042;-66
2022/04/03 01:10:23;;;;;;;5.88;1.60;;;6.10;81.50;;;;;;5030910;28;20025;-66
2022/04/03 01:12:48;;;;;;;3.80;1.40;;;6.10;81.50;;;;;;5029371;28;20064;-65
2022/04/03 01:15:16;;;;;;;3.97;1.83;;;6.10;81.70;;;;;;5020378;28;20120;-66
2022/04/03 01:17:43;;;;;;;3.05;1.58;;;6.10;81.70;;;;;;5030613;28;20041;-65
2022/04/03 01:20:09;;;;;;;2.33;1.50;;;6.10;81.70;;;;;;5032994;28;20385;-66
2022/04/03 01:22:35;;;;;;;2.50;1.80;;;6.10;81.80;;;;;;5026594;28;20038;-66
2022/04/03 01:25:01;;;;;;;2.13;1.42;;;6.00;82.10;;;;;;5022458;28;20104;-66
2022/04/03 01:27:27;;;;;;;2.90;1.60;;;6.00;82.30;;;;;;5021581;28;20564;-66
2022/04/03 01:29:52;;;;;;;2.92;1.45;;;6.00;82.40;;;;;;5014101;28;20030;-66
2022/04/03 01:32:21;;;;;;;2.00;1.30;;;6.00;82.40;;;;;;5014493;28;20037;-66
2022/04/03 01:34:47;;;;;;;3.00;1.60;;;6.00;82.60;;;;;;5029484;28;20080;-66
2022/04/03 01:37:13;;;;;;;5.20;2.00;;;6.00;82.60;;;;;;5014663;28;20021;-66
2022/04/03 01:39:39;;;;;;;1.58;1.48;;;6.00;82.80;;;;;;5016177;28;20419;-66
2022/04/03 01:42:07;;;;;;;2.53;1.60;;;6.00;83.00;;;;;;5033515;28;20050;-66
2022/04/03 01:44:33;;;;;;;3.45;1.80;;;6.00;83.20;;;;;;5029800;28;20469;-66
2022/04/03 01:46:59;;;;;;;2.03;1.45;;;6.00;83.30;;;;;;5013505;28;20044;-66
2022/04/03 01:49:24;;;;;;;3.47;1.55;;;6.00;83.20;;;;;;5027580;28;20064;-66
2022/04/03 01:51:50;;;;;;;2.33;1.40;;;6.00;83.10;;;;;;5029352;28;20030;-66
2022/04/03 01:54:16;;;;;;;2.65;1.70;;;6.00;83.10;;;;;;5030992;28;20041;-66
2022/04/03 01:56:44;;;;;;;7.22;1.90;;;6.00;83.10;;;;;;5028983;28;20041;-66
2022/04/03 01:59:13;;;;;;;6.00;1.90;;;5.90;83.50;;;;;;5032904;28;20421;-66
2022/04/03 02:01:38;;;;;;;4.75;1.65;;;6.00;82.70;;;;;;5031733;28;20045;-66
2022/04/03 02:04:04;;;;;;;4.57;1.52;;;6.00;82.60;;;;;;5033281;28;20111;-66
2022/04/03 02:06:31;;;;;;;2.70;1.67;;;6.00;82.30;;;;;;5033381;28;20072;-66
2022/04/03 02:09:01;;;;;;;2.28;1.52;;;6.00;82.20;;;;;;5031701;28;20037;-66
2022/04/03 02:11:28;;;;;;;2.33;1.67;;;6.00;82.20;;;;;;5032338;28;20499;-66
2022/04/03 02:13:54;;;;;;;3.58;1.80;;;6.00;82.20;;;;;;5032802;28;20030;-66
2022/04/03 02:16:19;;;;;;;2.97;1.60;;;6.10;82.30;;;;;;5031516;28;20029;-66
2022/04/03 02:18:45;;;;;;;1.55;1.40;;;6.10;82.20;;;;;;5031869;28;20052;-66
2022/04/03 02:21:11;;;;;;;1.50;1.15;;;6.00;82.10;;;;;;5032652;28;20109;-66
2022/04/03 02:23:37;;;;;;;2.35;1.20;;;6.00;82.10;;;;;;5032089;28;20157;-66
2022/04/03 02:26:02;;;;;;;1.17;1.02;;;6.00;82.10;;;;;;5032563;28;20108;-66
2022/04/03 02:28:28;;;;;;;1.17;1.13;;;6.00;82.20;;;;;;5032504;28;20131;-66
2022/04/03 02:30:53;;;;;;;1.75;1.33;;;6.00;82.30;;;;;;5032982;28;20135;-66
2022/04/03 02:33:19;;;;;;;3.15;0.95;;;6.00;82.50;;;;;;5032250;28;20033;-64
2022/04/03 02:35:45;;;;;;;4.25;0.88;;;6.00;82.50;;;;;;5031438;28;20033;-65
2022/04/03 02:38:11;;;;;;;3.28;1.10;;;6.00;82.80;;;;;;5031772;28;20029;-65
2022/04/03 02:40:36;;;;;;;5.82;1.20;;;6.00;83.00;;;;;;5031891;28;20075;-65
2022/04/03 02:43:03;;;;;;;2.30;0.88;;;6.10;83.30;;;;;;5028505;28;20113;-65
2022/04/03 02:45:29;;;;;;;4.75;1.25;;;6.10;83.30;;;;;;5025228;28;20029;-65
2022/04/03 02:47:55;;;;;;;1.85;1.02;;;6.10;83.30;;;;;;5012609;28;20045;-65
2022/04/03 02:50:23;;;;;;;1.30;1.20;;;6.20;83.50;;;;;;5011961;28;20057;-65
2022/04/03 02:52:50;;;;;;;3.45;1.20;;;6.20;83.50;;;;;;5012786;28;20057;-65
2022/04/03 02:55:17;;;;;;;1.33;1.10;;;6.30;84.10;;;;;;5022510;28;20044;-65
2022/04/03 02:57:43;;;;;;;1.70;1.60;;;6.30;83.50;;;;;;5029086;28;20057;-65
2022/04/03 03:00:14;;;;;;;3.35;1.10;;;6.30;83.30;;;;;;5012839;28;20421;-65
2022/04/03 03:02:40;;;;;;;3.80;0.98;;;6.30;83.30;;;;;;5012470;28;20042;-65
2022/04/03 03:05:07;;;;;;;0.73;0.73;;;6.30;83.30;;;;;;5018982;28;20030;-65
2022/04/03 03:07:37;;;;;;;2.42;0.80;;;6.30;83.20;;;;;;5013687;28;20044;-65
2022/04/03 03:10:07;;;;;;;3.08;0.93;;;6.30;83.30;;;;;;5012718;28;20537;-65
2022/04/03 03:12:34;;;;;;;2.55;0.73;;;6.30;83.10;;;;;;5011824;28;20054;-65
2022/04/03 03:14:59;;;;;;;1.60;0.80;;;6.30;83.10;;;;;;5012846;28;20481;-65
2022/04/03 03:17:26;;;;;;;1.58;0.68;;;6.30;83.30;;;;;;5013281;28;20057;-65
2022/04/03 03:19:51;;;;;;;2.47;0.68;;;6.30;83.30;;;;;;5012222;28;20053;-65
2022/04/03 03:22:17;;;;;;;0.85;0.70;;;6.30;83.50;;;;;;5012078;28;20793;-65
2022/04/03 03:24:43;;;;;;;3.13;1.08;;;6.30;83.60;;;;;;5026632;28;20018;-64
2022/04/03 03:27:09;;;;;;;0.70;0.70;;;6.20;83.70;;;;;;5019551;28;20042;-65
2022/04/03 03:29:34;;;;;;;1.63;0.75;;;6.30;83.80;;;;;;5030386;28;20032;-64
2022/04/03 03:32:01;;;;;;;4.22;0.90;;;6.20;83.80;;;;;;5031685;28;20036;-65
2022/04/03 03:34:26;;;;;;;1.35;0.82;;;6.20;83.80;;;;;;5012058;28;20036;-65
2022/04/03 03:36:52;;;;;;;2.88;0.82;;;6.20;83.90;;;;;;5012358;28;20789;-65
2022/04/03 03:39:20;;;;;;;3.38;1.02;;;6.20;84.00;;;;;;5031469;28;20025;-65
2022/04/03 03:41:46;;;;;;;0.68;0.60;;;6.20;84.10;;;;;;5018071;28;20030;-65
2022/04/03 03:44:12;;;;;;;1.95;1.00;;;6.20;84.10;;;;;;5011959;28;20787;-65
2022/04/03 03:46:42;;;;;;;1.45;0.60;;;6.10;84.10;;;;;;5011514;28;20030;-65
2022/04/03 03:49:08;;;;;;;3.17;0.85;;;6.10;84.40;;;;;;5012581;28;20036;-64
2022/04/03 03:51:35;;;;;;;0.82;0.80;;;6.10;84.60;;;;;;5011746;28;20026;-65
2022/04/03 03:54:00;;;;;;;3.60;0.88;;;6.10;84.80;;;;;;5012218;28;20114;-65
2022/04/03 03:56:27;;;;;;;2.75;1.17;;;6.10;85.00;;;;;;5011606;28;20026;-64
2022/04/03 03:58:53;;;;;;;1.50;0.60;;;6.10;85.10;;;;;;5011942;28;20801;-64
2022/04/03 04:01:19;;;;;;;0.70;0.70;;;6.10;85.20;;;;;;5011203;28;20021;-65
2022/04/03 04:03:45;;;;;;;3.45;0.73;;;6.00;85.10;;;;;;5017509;28;20045;-65
2022/04/03 04:06:11;;;;;;;0.80;0.80;;;6.10;85.10;;;;;;5015098;28;20041;-65
2022/04/03 04:08:36;;;;;;;1.13;0.80;;;6.10;85.10;;;;;;5011788;28;20034;-64
2022/04/03 04:11:03;;;;;;;1.85;0.70;;;6.10;85.10;;;;;;5011761;28;20076;-65
2022/04/03 04:13:28;;;;;;;0.85;0.85;;;6.10;85.00;;;;;;5011579;28;20054;-65
2022/04/03 04:15:54;;;;;;;1.48;0.82;;;6.00;85.00;;;;;;5011096;28;20033;-64
2022/04/03 04:18:20;;;;;;;2.90;1.15;;;6.10;85.10;;;;;;5022996;28;20483;-65
2022/04/03 04:20:46;;;;;;;1.75;1.15;;;6.10;85.10;;;;;;5018090;28;20396;-65
2022/04/03 04:23:12;;;;;;;0.77;0.77;;;6.10;85.00;;;;;;5030249;28;20041;-64
2022/04/03 04:25:37;;;;;;;1.98;0.98;;;6.10;84.80;;;;;;5031891;28;20021;-64
2022/04/03 04:28:03;;;;;;;1.17;1.08;;;6.10;84.80;;;;;;5011859;28;20033;-64
2022/04/03 04:30:29;;;;;;;0.85;0.60;;;6.10;84.90;;;;;;5011133;28;20030;-65
2022/04/03 04:32:54;;;;;;;1.20;0.75;;;6.00;84.60;;;;;;5031378;28;20049;-65
2022/04/03 04:35:20;;;;;;;1.13;0.85;;;5.90;84.80;;;;;;5016482;28;20037;-64
2022/04/03 04:37:46;;;;;;;2.22;0.95;;;5.90;85.00;;;;;;5012116;28;20030;-64
2022/04/03 04:40:13;;;;;;;1.42;0.90;;;5.80;85.10;;;;;;5011286;28;20058;-65
2022/04/03 04:42:39;;;;;;;1.88;0.90;;;5.80;85.20;;;;;;5014208;28;20070;-65
2022/04/03 04:45:07;;;;;;;0.75;0.75;;;5.80;85.20;;;;;;5028598;28;20056;-64
2022/04/03 04:47:38;;;;;;;0.70;0.70;;;5.80;85.20;;;;;;5015378;28;20026;-64
2022/04/03 04:50:14;;;;;;;0.90;0.90;;;5.80;85.20;;;;;;5030938;28;20384;-65
2022/04/03 04:52:41;;;;;;;1.17;0.85;;;5.80;85.10;;;;;;5035612;28;20033;-64
2022/04/03 04:55:10;;;;;;;0.75;0.60;;;5.80;85.10;;;;;;5029806;28;20040;-65
2022/04/03 04:57:37;;;;;;;1.05;0.90;;;5.80;85.20;;;;;;5014336;28;20068;-65
2022/04/03 05:00:07;;;;;;;0.63;0.63;;;5.80;85.60;;;;;;5015378;28;20034;-65
2022/04/03 05:02:33;;;;;;;0.98;0.88;;;5.80;85.80;;;;;;5028006;28;20060;-65
2022/04/03 05:04:59;;;;;;;1.00;0.90;;;5.80;85.90;;;;;;5033947;28;20029;-65
2022/04/03 05:07:25;;;;;;;1.05;0.90;;;5.80;86.10;;;;;;5034175;28;20057;-65
2022/04/03 05:09:52;;;;;;;0.63;0.63;;;5.80;86.30;;;;;;5014996;28;20033;-65
2022/04/03 05:12:18;;;;;;;0.65;0.65;;;5.70;86.30;;;;;;5014051;28;20030;-65
2022/04/03 05:14:45;;;;;;;1.65;1.40;;;5.70;86.50;;;;;;5015666;28;20040;-65
2022/04/03 05:17:10;;;;;;;0.52;0.52;;;5.70;86.50;;;;;;5014936;28;20038;-65
2022/04/03 05:19:36;;;;;;;1.80;1.15;;;5.60;86.70;;;;;;5022645;28;20094;-65
2022/04/03 05:22:05;;;;;;;1.85;1.10;;;5.70;86.70;;;;;;5021182;28;20034;-65
2022/04/03 05:24:31;;;;;;;0.60;0.60;;;5.60;86.70;;;;;;5033582;28;20044;-66
2022/04/03 05:26:57;;;;;;;1.10;0.98;;;5.60;86.90;;;;;;5024122;28;20030;-65
2022/04/03 05:29:23;;;;;;;4.13;1.27;;;5.60;87.00;;;;;;5014467;28;20523;-65
2022/04/03 05:31:49;;;;;;;1.75;1.10;;;5.60;87.00;;;;;;5025223;28;20108;-65
2022/04/03 05:34:14;;;;;;;1.15;1.00;;;5.60;87.10;;;;;;5021118;28;20239;-65
2022/04/03 05:36:43;;;;;;;0.88;0.88;;;5.50;87.10;;;;;;5034862;28;20026;-65
2022/04/03 05:39:08;;;;;;;3.05;0.90;;;5.60;87.20;;;;;;5014958;28;20113;-65
2022/04/03 05:41:34;;;;;;;2.53;0.95;;;5.60;87.20;;;;;;5014781;28;20620;-65
2022/04/03 05:44:02;;;;;;;1.15;1.00;;;5.50;87.20;;;;;;5033110;28;20052;-69
2022/04/03 05:46:28;;;;;;;3.63;1.10;;;5.60;87.30;;;;;;5020357;28;20111;-65
2022/04/03 05:48:54;;;;;;;1.67;1.58;;;5.60;87.30;;;;;;5015457;28;20037;-65
2022/04/03 05:51:20;;;;;;;1.77;1.33;;;5.50;87.20;;;;;;5026942;28;20041;-66
2022/04/03 05:53:46;;;;;;;3.25;1.35;;;5.50;87.20;;;;;;5032130;28;20037;-65
2022/04/03 05:56:12;;;;;;;1.00;0.95;;;5.50;87.10;;;;;;5019320;28;20029;-66
2022/04/03 05:58:38;;;;;;;2.45;1.33;;;5.50;87.00;;;;;;5013182;28;20568;-66
2022/04/03 06:01:04;;;;;;;11.70;1.40;;;5.60;87.10;;;;;;5012670;28;20036;-66
2022/04/03 06:03:30;;;;;;;2.20;1.00;;;5.60;87.20;;;;;;5017000;28;20052;-68
2022/04/03 06:05:55;;;;;;;1.65;1.10;;;5.60;87.20;;;;;;5018409;28;20026;-66
2022/04/03 06:08:21;;;;;;;1.73;1.00;;;5.60;87.20;;;;;;5013389;28;20033;-66
2022/04/03 06:10:47;;;;;;;3.53;1.10;;;5.60;87.20;;;;;;5013579;28;20038;-66
2022/04/03 06:13:13;;;;;;;3.92;1.00;;;5.60;87.80;;;;;;5022663;28;20033;-65
2022/04/03 06:15:42;;;;;;;0.90;0.90;;;5.60;87.20;;;;;;5030541;28;20038;-66
2022/04/03 06:18:16;;;;;;;2.10;1.05;;;5.60;87.10;;;;;;5023330;28;20464;-65
2022/04/03 06:20:42;;;;;;;4.35;1.27;;;5.60;87.20;;;;;;5015937;28;20060;-66
2022/04/03 06:23:16;;;;;;;4.18;1.10;;;5.60;87.20;;;;;;5013316;28;20434;-65
2022/04/03 06:25:43;;;;;;;0.90;0.82;;;5.60;87.30;;;;;;5032165;28;20030;-66
2022/04/03 06:28:09;;;;;;;2.05;0.88;;;5.60;87.20;;;;;;5024362;28;20091;-66
2022/04/03 06:30:38;;;;;;;0.60;0.60;;;5.60;87.20;;;;;;5031965;28;20029;-66
2022/04/03 06:33:04;;;;;;;0.50;0.50;;;5.50;87.30;;;;;;5032583;28;20034;-65
2022/04/03 06:35:30;;;;;;;2.78;1.17;;;5.50;87.50;;;;;;5031543;28;20029;-66
2022/04/03 06:37:58;;;;;;;1.15;0.95;;;5.40;87.70;;;;;;5032785;28;20040;-67
2022/04/03 06:40:24;;;;;;;1.35;0.90;;;5.30;87.90;;;;;;5032040;28;20063;-66
2022/04/03 06:42:51;;;;;;;0.80;0.80;;;5.40;88.00;;;;;;5031708;28;20485;-66
2022/04/03 06:45:17;;;;;;;0.85;0.85;;;5.40;88.10;;;;;;5031665;28;20063;-66
2022/04/03 06:47:43;;;;;;;1.98;1.88;;;5.40;88.10;;;;;;5031801;28;20033;-65
2022/04/03 06:50:10;;;;;;;1.38;1.02;;;5.40;88.20;;;;;;5031363;28;20029;-66
2022/04/03 06:52:36;;;;;;;2.10;1.20;;;5.40;88.20;;;;;;5031604;28;20030;-66
2022/04/03 06:55:03;;;;;;;1.50;1.10;;;5.50;88.40;;;;;;5031748;28;20033;-65
2022/04/03 06:57:29;;;;;;;5.20;1.40;;;5.50;88.50;;;;;;5030922;28;20124;-66
2022/04/03 06:59:55;;;;;;;0.68;0.63;;;5.50;88.60;;;;;;5031739;28;20167;-65
2022/04/03 07:02:20;;;;;;;1.80;0.90;;;5.60;88.50;;;;;;5030711;28;20041;-66
2022/04/03 07:04:46;;;;;;;1.25;1.15;;;5.50;88.40;;;;;;5029855;28;20030;-65
2022/04/03 07:07:23;;;;;;;3.00;0.95;;;5.60;88.40;;;;;;5031311;28;20052;-66
2022/04/03 07:09:50;;;;;;;2.90;1.30;;;5.60;88.60;;;;;;5031748;28;20083;-65
2022/04/03 07:12:16;;;;;;;0.88;0.88;;;5.60;88.60;;;;;;5030593;28;20144;-66
2022/04/03 07:14:45;;;;;;;1.23;1.13;;;5.70;88.60;;;;;;5031311;28;20160;-67
2022/04/03 07:17:10;;;;;;;1.95;0.85;;;5.70;88.70;;;;;;5030210;28;20029;-64
2022/04/03 07:19:36;;;;;;;1.77;1.17;;;5.70;88.80;;;;;;5031256;28;20112;-64
2022/04/03 07:22:02;;;;;;;6.88;1.45;;;5.80;88.80;;;;;;5030920;28;20400;-65
2022/04/03 07:24:28;;;;;;;3.25;1.17;;;5.80;89.70;;;;;;5030167;28;20031;-64
2022/04/03 07:26:54;;;;;;;5.63;1.30;;;5.90;89.70;;;;;;5028320;28;20033;-64
2022/04/03 07:29:21;;;;;;;2.55;1.10;;;5.90;89.60;;;;;;5030827;28;20036;-64
2022/04/03 07:31:47;;;;;;;4.40;1.40;;;6.00;90.20;;;;;;5030314;28;20029;-64
2022/04/03 07:34:12;;;;;;;3.40;0.90;;;6.00;90.50;;;;;;5030469;28;20063;-63
2022/04/03 07:36:38;;;;;;;1.55;1.05;;;6.10;90.80;;;;;;5030259;28;20053;-64
2022/04/03 07:39:04;;;;;;;1.40;0.88;;;6.10;91.00;;;;;;5028476;28;20041;-63
2022/04/03 07:41:29;;;;;;;5.97;1.10;;;6.20;90.70;;;;;;5029031;28;20022;-63
2022/04/03 07:43:55;;;;;;;0.50;0.50;;;6.20;90.70;;;;;;5029333;28;20156;-64
2022/04/03 07:46:24;;;;;;;0.73;0.70;;;6.30;90.50;;;;;;5028303;28;20432;-63
2022/04/03 07:48:49;;;;;;;4.05;0.80;;;6.30;90.30;;;;;;5027783;28;20041;-64
2022/04/03 07:51:15;;;;;;;4.80;1.00;;;6.30;90.10;;;;;;5027828;28;20025;-64
2022/04/03 07:53:41;;;;;;;11.27;1.30;;;6.30;90.00;;;;;;5027672;28;20057;-64
2022/04/03 07:56:06;;;;;;;2.78;0.80;;;6.40;90.00;;;;;;5027867;28;20026;-64
2022/04/03 07:58:33;;;;;;;0.73;0.73;;;6.50;89.80;;;;;;5027435;28;20049;-64
2022/04/03 08:01:00;;;;;;;1.88;1.08;;;6.60;89.30;;;;;;5027326;28;20053;-64
2022/04/03 08:03:26;;;;;;;1.00;1.00;;;6.60;89.00;;;;;;5027796;28;20045;-64
2022/04/03 08:05:53;;;;;;;6.47;1.10;;;6.70;88.80;;;;;;5027634;28;20080;-65
2022/04/03 08:08:19;;;;;;;2.75;0.90;;;6.70;89.10;;;;;;5027331;28;20033;-65
2022/04/03 08:10:45;;;;;;;3.63;1.45;;;6.70;89.20;;;;;;5029139;28;20036;-64
2022/04/03 08:13:10;;;;;;;3.67;1.00;;;6.80;89.70;;;;;;5028776;28;20377;-69
2022/04/03 08:15:39;;;;;;;2.10;0.70;;;6.80;89.80;;;;;;5027234;28;20029;-69
2022/04/03 08:18:05;;;;;;;2.72;0.90;;;6.80;90.00;;;;;;5028521;28;20025;-64
2022/04/03 08:20:30;;;;;;;1.58;1.15;;;6.90;90.10;;;;;;5026604;28;20100;-64
2022/04/03 08:23:03;;;;;;;4.57;2.67;;;6.90;90.20;;;;;;5027633;28;20384;-64
2022/04/03 08:25:31;;;;;;;4.20;1.10;;;6.90;90.40;;;;;;5028780;28;20033;-65
2022/04/03 08:27:57;;;;;;;4.78;1.23;;;6.90;90.30;;;;;;5026083;28;20429;-65
2022/04/03 08:30:34;;;;;;;4.07;1.40;;;6.90;90.20;;;;;;5027528;28;20370;-64
2022/04/03 08:33:00;;;;;;;3.45;1.10;;;7.00;90.20;;;;;;5027886;28;20036;-64
2022/04/03 08:35:28;;;;;;;4.90;1.02;;;7.00;90.20;;;;;;5027033;28;20033;-65
2022/04/03 08:37:55;;;;;;;1.38;1.05;;;7.00;90.10;;;;;;5025995;28;20251;-65
2022/04/03 08:40:23;;;;;;;4.53;0.82;;;7.00;90.20;;;;;;5027923;28;20036;-65
2022/04/03 08:42:51;;;;;;;3.72;1.08;;;7.10;90.20;;;;;;5025959;28;20045;-64
2022/04/03 08:45:17;;;;;;;2.20;0.85;;;7.10;90.20;;;;;;5025954;28;20060;-64
2022/04/03 08:47:44;;;;;;;3.67;1.10;;;7.10;90.30;;;;;;5026960;28;20084;-65
2022/04/03 08:50:12;;;;;;;3.53;0.88;;;7.20;90.40;;;;;;5026926;28;20021;-64
2022/04/03 08:52:39;;;;;;;2.20;1.05;;;7.20;90.30;;;;;;5024875;28;20030;-65
2022/04/03 08:55:05;;;;;;;0.80;0.80;;;7.20;90.20;;;;;;5027047;28;20622;-64
2022/04/03 08:57:32;;;;;;;0.43;0.28;;;7.30;90.30;;;;;;5025940;28;20050;-65
2022/04/03 08:59:59;;;;;;;2.33;0.80;;;7.30;90.20;;;;;;5026252;28;20026;-65
2022/04/03 09:02:25;;;;;;;2.03;0.93;;;7.40;89.80;;;;;;5026523;28;20048;-64
2022/04/03 09:04:51;;;;;;;8.95;1.15;;;7.40;89.70;;;;;;5027448;28;20025;-64
2022/04/03 09:07:18;;;;;;;0.50;0.50;;;7.50;88.50;;;;;;5027355;28;20029;-65
2022/04/03 09:10:05;;;;;;;3.08;0.70;;;7.50;89.00;;;;;;5027090;28;20124;-65
2022/04/03 09:12:31;;;;;;;1.25;0.60;;;7.50;89.10;;;;;;5026971;28;20041;-63
2022/04/03 09:14:57;;;;;;;1.75;0.70;;;7.60;89.00;;;;;;5028438;28;20044;-66
2022/04/03 09:17:40;;;;;;;2.10;1.08;;;7.60;89.20;;;;;;5027961;28;20512;-65
2022/04/03 09:20:14;;;;;;;1.58;1.25;;;7.70;89.40;;;;;;5027935;28;20025;-65
2022/04/03 09:22:51;;;;;;;0.70;0.70;;;7.70;89.30;;;;;;5027324;28;20103;-65
2022/04/03 09:25:43;;;;;;;1.65;0.68;;;7.80;88.80;;;;;;5025667;28;20144;-65
2022/04/03 09:28:17;;;;;;;5.05;1.13;;;7.80;88.50;;;;;;5028338;28;20037;-65
2022/04/03 09:30:46;;;;;;;3.72;1.10;;;7.90;88.10;;;;;;5030148;28;20026;-65
2022/04/03 09:33:15;;;;;;;3.28;0.95;;;7.90;88.20;;;;;;5023457;28;20029;-65
2022/04/03 09:35:57;;;;;;;2.13;1.00;;;7.90;88.30;;;;;;5029380;28;20163;-65
2022/04/03 09:38:25;;;;;;;1.75;0.80;;;8.00;87.60;;;;;;5028940;28;20066;-65
2022/04/03 09:40:52;;;;;;;3.97;0.88;;;8.00;88.10;;;;;;5029331;28;20029;-65
2022/04/03 09:43:24;;;;;;;0.77;0.60;;;8.20;88.20;;;;;;5027316;28;20065;-65
2022/04/03 09:45:54;;;;;;;4.55;1.13;;;8.20;88.20;;;;;;5027023;28;20064;-65
2022/04/03 09:48:47;;;;;;;2.65;1.10;;;8.20;88.00;;;;;;5026816;28;20119;-64
2022/04/03 09:51:22;;;;;;;10.40;0.82;;;8.30;88.00;;;;;;5029692;28;20121;-65
2022/04/03 09:53:53;;;;;;;3.85;1.27;;;8.30;87.80;;;;;;5026102;28;20106;-65
2022/04/03 09:56:23;;;;;;;2.00;1.00;;;8.40;87.90;;;;;;5027142;28;20036;-64
2022/04/03 09:58:51;;;;;;;6.25;1.20;;;8.40;87.10;;;;;;5026205;28;20044;-65
2022/04/03 10:01:28;;;;;;;4.82;1.00;;;8.40;86.30;;;;;;5026431;28;20467;-64
2022/04/03 10:03:54;;;;;;;3.58;0.75;;;8.50;86.00;;;;;;5028086;28;20041;-64
2022/04/03 10:06:21;;;;;;;8.13;1.10;;;8.50;85.50;;;;;;5030997;28;20121;-65
2022/04/03 10:08:47;;;;;;;3.10;1.00;;;8.60;84.80;;;;;;5030416;28;20387;-62
2022/04/03 10:11:14;;;;;;;0.90;0.75;;;8.60;85.90;;;;;;5031677;28;20535;-62
2022/04/03 10:13:42;;;;;;;5.45;0.93;;;8.70;87.00;;;;;;5030036;28;20120;-62
2022/04/03 10:16:08;;;;;;;3.80;1.17;;;8.60;86.80;;;;;;5013721;28;20048;-62
2022/04/03 10:18:37;;;;;;;4.32;1.00;;;8.70;84.60;;;;;;5013232;28;20046;-62
2022/04/03 10:21:07;;;;;;;5.40;1.10;;;8.70;85.30;;;;;;5012657;28;20034;-62
2022/04/03 10:23:34;;;;;;;1.90;0.77;;;8.80;85.40;;;;;;5013225;28;20073;-63
2022/04/03 10:26:02;;;;;;;1.17;0.70;;;8.90;85.40;;;;;;5028611;28;20026;-62
2022/04/03 10:28:31;;;;;;;2.15;1.02;;;8.90;84.50;;;;;;5013350;28;20542;-62
2022/04/03 10:31:07;;;;;;;6.03;0.77;;;8.90;83.60;;;;;;5014193;28;20277;-62
2022/04/03 10:33:41;;;;;;;1.85;0.65;;;9.00;84.50;;;;;;5025364;28;20048;-63
2022/04/03 10:36:09;;;;;;;2.35;1.02;;;9.00;85.80;;;;;;5019750;28;20036;-62
2022/04/03 10:38:43;;;;;;;1.95;1.02;;;9.00;84.20;;;;;;5018032;28;20121;-63
2022/04/03 10:41:28;;;;;;;4.82;1.05;;;9.10;82.70;;;;;;5020766;28;20033;-62
2022/04/03 10:44:11;;;;;;;3.30;1.00;;;9.10;83.10;;;;;;5029585;28;20055;-63
2022/04/03 10:47:02;;;;;;;1.80;0.90;;;9.20;84.10;;;;;;5031329;28;20029;-63
2022/04/03 10:49:46;;;;;;;5.30;0.90;;;9.30;83.90;;;;;;5031087;28;20593;-63
2022/04/03 10:52:43;;;;;;;2.85;0.82;;;9.30;85.20;;;;;;5030955;28;20035;-63
2022/04/03 10:55:25;;;;;;;3.70;0.80;;;9.30;85.40;;;;;;5027940;28;20025;-68
2022/04/03 10:57:53;;;;;;;1.38;0.85;;;9.30;85.90;;;;;;5026229;28;20050;-63
2022/04/03 11:00:24;;;;;;;5.97;1.13;;;9.40;86.40;;;;;;5028547;28;20037;-63
2022/04/03 11:03:02;;;;;;;1.35;0.70;;;9.40;88.00;;;;;;5028361;28;20132;-62
2022/04/03 11:05:27;;;;;;;4.15;1.73;;;9.40;88.20;;;;;;5030136;28;20046;-63
2022/04/03 11:08:06;;;;;;;5.40;1.52;;;9.40;88.50;;;;;;5030433;28;20021;-63
2022/04/03 11:11:07;;;;;;;0.73;0.73;;;9.40;86.20;;;;;;5030937;28;20072;-62
2022/04/03 11:13:36;;;;;;;3.55;1.60;;;9.40;86.30;;;;;;5030629;28;20029;-63
2022/04/03 11:16:08;;;;;;;1.98;0.80;;;9.50;87.00;;;;;;5032262;28;20025;-63
2022/04/03 11:18:39;;;;;;;2.90;0.95;;;9.50;87.50;;;;;;5030406;28;20045;-63
2022/04/03 11:21:23;;;;;;;10.68;5.10;;;9.50;86.30;;;;;;5030828;28;20476;-63
2022/04/03 11:23:51;;;;;;;3.10;1.25;;;9.60;86.70;;;;;;5028660;28;20049;-63
2022/04/03 11:26:20;;;;;;;1.67;0.70;;;9.60;86.70;;;;;;5029134;28;20573;-63
2022/04/03 11:28:46;;;;;;;0.60;0.60;;;9.70;86.10;;;;;;5031929;28;20036;-64
2022/04/03 11:31:13;;;;;;;1.92;0.73;;;9.60;85.70;;;;;;5030102;28;20075;-63
2022/04/03 11:33:39;;;;;;;2.00;0.65;;;9.70;86.00;;;;;;5031153;28;20044;-64
2022/04/03 11:36:26;;;;;;;2.80;0.60;;;9.70;85.70;;;;;;5032019;28;20481;-63
2022/04/03 11:38:53;;;;;;;0.77;0.52;;;9.80;85.60;;;;;;5029861;28;20076;-65
2022/04/03 11:41:27;;;;;;;1.15;0.70;;;9.80;86.90;;;;;;5030770;28;20503;-63
2022/04/03 11:44:01;;;;;;;0.65;0.35;;;9.80;85.50;;;;;;5029800;28;20220;-63
2022/04/03 11:46:31;;;;;;;2.10;0.65;;;9.90;86.20;;;;;;5029745;28;20124;-63
2022/04/03 11:48:56;;;;;;;0.40;0.40;;;9.90;85.80;;;;;;5022635;28;20060;-63
2022/04/03 11:51:22;;;;;;;0.68;0.57;;;10.00;86.80;;;;;;5014050;28;20026;-64
2022/04/03 11:54:02;;;;;;;0.40;0.40;;;10.00;86.10;;;;;;5012677;28;20030;-63
2022/04/03 11:56:34;;;;;;;3.83;0.60;;;10.10;84.50;;;;;;5012123;28;20508;-63
2022/04/03 11:59:00;;;;;;;6.70;1.30;;;10.10;84.70;;;;;;5022101;28;20025;-63
2022/04/03 12:01:28;;;;;;;3.22;0.77;;;10.20;84.30;;;;;;5027274;28;20397;-62
2022/04/03 12:04:08;;;;;;;2.60;1.70;;;10.30;81.40;;;;;;5018624;28;20049;-63
2022/04/03 12:06:36;;;;;;;0.70;0.47;;;10.30;79.40;;;;;;5011644;28;20099;-62
2022/04/03 12:09:08;;;;;;;5.72;1.20;;;10.40;81.50;;;;;;5016043;28;20377;-63
2022/04/03 12:11:40;;;;;;;1.60;0.70;;;10.40;81.30;;;;;;5044725;28;20037;-63
2022/04/03 12:14:07;;;;;;;3.20;0.90;;;10.50;82.60;;;;;;5029665;28;20033;-63
2022/04/03 12:16:36;;;;;;;4.35;0.90;;;10.50;80.50;;;;;;5030639;28;20099;-63
2022/04/03 12:19:08;;;;;;;3.60;0.68;;;10.50;80.70;;;;;;5031142;28;20401;-63
2022/04/03 12:22:04;;;;;;;3.65;0.63;;;10.60;82.30;;;;;;5014076;28;20033;-64
2022/04/03 12:24:32;;;;;;;0.93;0.55;;;10.60;82.80;;;;;;5012415;28;20073;-63
2022/04/03 12:27:22;;;;;;;4.38;0.98;;;10.70;82.90;;;;;;5023026;28;20038;-63
2022/04/03 12:29:49;;;;;;;3.40;0.93;;;10.70;81.50;;;;;;5026291;28;20392;-64
2022/04/03 12:32:35;;;;;;;4.68;1.17;;;10.80;82.10;;;;;;5027750;28;20041;-63
2022/04/03 12:35:02;;;;;;;3.72;0.60;;;10.80;80.50;;;;;;5029696;28;20029;-63
2022/04/03 12:37:40;;;;;;;1.10;0.75;;;10.80;80.40;;;;;;5029913;28;20068;-65
2022/04/03 12:40:08;;;;;;;1.50;0.70;;;10.80;80.70;;;;;;5020375;28;20038;-63
2022/04/03 12:42:45;;;;;;;1.40;0.80;;;10.80;81.50;;;;;;5023339;28;20072;-63
2022/04/03 12:45:17;;;;;;;0.30;0.30;;;10.80;82.30;;;;;;5028124;28;20036;-69
2022/04/03 12:47:44;;;;;;;9.57;0.97;;;10.90;80.50;;;;;;5025037;28;20055;-64
2022/04/03 12:50:38;;;;;;;0.45;0.20;;;10.90;81.10;;;;;;5027247;28;20412;-63
2022/04/03 12:53:06;;;;;;;1.45;0.68;;;10.90;84.20;;;;;;5028855;28;20035;-63
2022/04/03 12:55:48;;;;;;;5.22;0.85;;;10.90;84.60;;;;;;5025422;28;20034;-63
2022/04/03 12:58:27;;;;;;;4.60;0.85;;;10.90;83.10;;;;;;5026655;28;20050;-62
2022/04/03 13:01:09;;;;;;;1.23;0.60;;;10.90;81.90;;;;;;5028822;28;20026;-63
2022/04/03 13:03:44;;;;;;;1.95;0.60;;;10.90;81.70;;;;;;5029202;28;20481;-63